• Join FlightAware (Why Join?)
  • Login
  • US Flag 
02:21PM EDT


 

Airport Tracker/Info


-or-


 

Live Flight TrackerFlight Track Log ✈ SWA2436 ✈ 08-Apr-2013 ✈ KMSY - KHOU

Flight Track Log - Related Links

Times and Time Zones

All times are in EDT time to prevent confusion due to time zone crossing. See the SWA2436 flight status page for this flight to view local times or setup timezone preferences in your user account.

Time Position Orientation Groundspeed Altitude Reporting Facility
EDT Latitude Longitude Course Direction KTS MPH feet Rate Location/Type
10:52PM 29.9628 -90.2631 203° Southwest 160 184 1,900  Level Houston Center
10:53PM 29.9500 -90.3356 259° West 275 316 5,500 3,900 Climbing Houston Center
10:54PM 29.9461 -90.4225 267° West 272 313 9,900 3,240 Climbing Houston Center
10:55PM 29.9378 -90.5211 264° West 325 374 12,100 3,240 Climbing Houston Center
10:56PM 29.9239 -90.6597 263° West 362 417 16,500 4,380 Climbing Houston Center
10:57PM 29.8919 -90.7689 251° West 360 414 21,100 3,660 Climbing Houston Center
10:58PM 29.8614 -90.8781 252° West 359 413 24,000 2,820 Climbing Houston Center
10:59PM 29.8264 -90.9928 251° West 377 434 26,900 2,760 Climbing Houston Center
11:00PM 29.7936 -91.1044 251° West 370 426 29,700 2,040 Climbing Houston Center
11:01PM 29.7744 -91.2264 260° West 387 445 31,100 1,800 Climbing Houston Center
11:02PM 29.7561 -91.3578 261° West 411 473 33,400 2,280 Climbing Houston Center
11:03PM 29.7386 -91.4819 261° West 396 456 35,800 1,260 Climbing Houston Center
11:04PM 29.7203 -91.6072 260° West 397 457 36,000 60 Climbing Houston Center
11:05PM 29.6997 -91.7428 260° West 406 467 36,000  Level Houston Center
11:06PM 29.6817 -91.8711 261° West 407 468 36,000  Level Houston Center
11:07PM 29.6631 -91.9997 261° West 409 471 36,000  Level Houston Center
11:08PM 29.6436 -92.1286 260° West 408 470 36,000  Level Houston Center
11:09PM 29.6244 -92.2561 260° West 406 467 36,000  Level Houston Center
11:10PM 29.6056 -92.3842 260° West 406 467 36,000  Level Houston Center
11:11PM 29.5847 -92.5114 259° West 407 468 36,000  Level Houston Center
11:12PM 29.5661 -92.6392 261° West 405 466 36,000  Level Houston Center
11:13PM 29.5461 -92.7667 260° West 406 467 36,000  Level Houston Center
11:14PM 29.5261 -92.8956 260° West 409 471 36,000  Level Houston Center
11:15PM 29.5064 -93.0247 260° West 410 472 36,000  Level Houston Center
11:16PM 29.4850 -93.1547 259° West 412 474 36,000 -540 Level Houston Center
11:17PM 29.4606 -93.3108 260° West 409 471 35,000 -2,040 Descending Houston Center
11:18PM 29.4406 -93.4383 260° West 410 472 31,900 -2,820 Descending Houston Center
11:19PM 29.4194 -93.5658 259° West 408 470 29,400 -2,460 Descending Houston Center
11:21PM 29.4006 -93.6875 260° West 395 455 27,000 -2,400 Descending Houston Center
11:22PM 29.3814 -93.8047 259° West 380 437 24,600 -2,340 Descending Houston Center
11:22PM 29.3706 -93.8697 259° West 367 422 23,400 -1,980 Descending Houston Center
11:23PM 29.3633 -93.9100 258° West 368 423 22,600 -2,340 Descending Houston Center
11:23PM 29.3489 -94.0069 260° West 361 415 20,600 -2,220 Descending Houston Center
11:24PM 29.3456 -94.0228 256° West 363 418 20,400 -2,220 Descending Houston Center
11:24PM 29.3300 -94.1103 258° West 346 398 18,600 -2,460 Descending Houston Center
11:25PM 29.3267 -94.1297 259° West 349 402 17,900 -2,760 Descending Houston Center
11:25PM 29.3133 -94.2178 260° West 342 394 15,800 -2,760 Descending Houston Center
11:26PM 29.3092 -94.2358 255° West 343 395 15,100 -3,240 Descending Houston Center
11:26PM 29.2928 -94.3261 258° West 347 399 12,600 -2,880 Descending Houston Center
11:27PM 29.2914 -94.3442 265° West 344 396 12,200 -600 Descending Houston Center
11:27PM 29.2761 -94.4339 259° West 345 397 12,000 -240 Descending Houston Center
11:28PM 29.2736 -94.4503 260° West 341 392 12,000  Level Houston Center
11:28PM 29.2931 -94.5394 284° West 364 419 12,000 -240 Level Houston Center
11:29PM 29.3033 -94.5569 304° West 370 426 11,800 -1,380 Descending Houston Center
11:29PM 29.3431 -94.6433 298° West 370 426 10,600 -1,620 Descending Houston Center
11:30PM 29.3525 -94.6589 305° West 368 423 10,200 -600 Descending Houston Center
11:30PM 29.3925 -94.7428 299° West 360 414 10,000 -240 Descending Houston Center
11:31PM 29.4114 -94.7778 302° West 357 411 10,000  Level Houston Center
11:31PM 29.4422 -94.8444 298° West 342 394 10,000  Level Houston Center
11:32PM 29.4572 -94.8694 305° West 335 386 10,000 -1,020 Level Houston Center
11:32PM 29.4839 -94.9281 298° West 299 344 9,000 -1,500 Descending Houston Center
11:33PM 29.4978 -94.9533 302° West 306 352 8,500 -1,620 Descending Houston Center
11:33PM 29.5258 -95.0142 298° West 303 349 7,400 -1,500 Descending Houston Center
11:34PM 29.5389 -95.0369 303° West 302 348 7,000 -1,260 Descending Houston Center
11:34PM 29.5678 -95.1050 296° West 294 338 6,000 -600 Descending Houston Center
11:35PM 29.5861 -95.1869 284° West 283 326 6,000  Level Houston Center
11:36PM 29.5919 -95.2192 282° West 293 337 6,000  Level Houston Center
11:36PM 29.6022 -95.2714 283° West 250 288 6,000  Level Houston Center
11:37PM 29.6047 -95.2864 281° West 275 316 6,000 -300 Level Houston Center
11:37PM 29.6175 -95.3467 284° West 232 267 5,700 -840 Descending Houston Center
11:38PM 29.6239 -95.3758 284° West 247 284 5,200 -1,200 Descending Houston Center
11:38PM 29.6531 -95.4119 313° West 243 280 4,500 -900 Descending Houston Center
11:39PM 29.6681 -95.4339 308° West 242 278 4,300 -900 Descending Houston Center
11:39PM 29.6939 -95.4697 310° West 231 266 3,600 -1,140 Descending Houston Center
11:40PM 29.7150 -95.4783 340° North 237 273 3,200 -720 Descending Houston Center
11:40PM 29.7444 -95.4467 43° Northeast 200 230 2,900 -720 Descending Houston Center
11:41PM 29.7447 -95.4331 89° East 202 232 2,500 -900 Descending Houston Center
11:41PM 29.7397 -95.3967 99° East 156 180 2,000 -540 Descending Houston Center
11:42PM 29.7336 -95.3847 121° Southeast 174 200 2,000 -240 Level Houston Center
11:42PM 29.7133 -95.3614 135° Southeast 145 167 1,800 -420 Descending Houston Center
11:43PM 29.7069 -95.3525 130° Southeast 153 176 1,600 -600 Descending Houston Center
11:43PM 29.6897 -95.3331 136° Southeast 118 136 1,200 -600 Descending Houston Center
11:44PM 29.6828 -95.3233 129° Southeast 139 160 1,000 -600 Descending Houston Center
11:44PM 29.6664 -95.3069 139° Southeast 116 133 600 -600 Descending Houston Center
11:45PM 29.6614 -95.2989 126° Southeast 123 142 400 26,520 Descending Houston Center
11:46PM 29.6406 -95.2753 135° Southeast 120 138 36,000 34,980 Climbing Houston Center